This is the latest recevied weather packets stored in our database for station/object EB2GLU-13. If no packets are shown the sender has not sent any weather packets the latest 10 day(s).
| Time | Temp. | Humidity | Pressure | Rain* | Wind** | Luminosity | Snow |
|---|---|---|---|---|---|---|---|
| 1787595471 | 26.11° C | 67% | 1002.2 hPa | 0 mm | - | - | - |
| 1787594721 | 26.67° C | 65% | 1001.9 hPa | 0 mm | - | - | - |
| 1787593971 | 27.22° C | 63% | 1001.9 hPa | 0 mm | - | - | - |
| 1787593221 | 26.67° C | 64% | 1001.7 hPa | 0 mm | - | - | - |
| 1787592471 | 27.78° C | 60% | 1001.7 hPa | 0 mm | - | - | - |
| 1787591721 | 27.78° C | 58% | 1001.7 hPa | 0 mm | - | - | - |
| 1787590971 | 28.33° C | 57% | 1001.6 hPa | 0 mm | - | - | - |
| 1787590221 | 28.33° C | 55% | 1001.2 hPa | 0 mm | - | - | - |
| 1787589471 | 28.89° C | 54% | 1000.7 hPa | 0 mm | - | - | - |
| 1787588721 | 30° C | 53% | 1000.5 hPa | 0 mm | - | - | - |
| 1787587971 | 31.67° C | 47% | 1000.4 hPa | 0 mm | - | - | - |
| 1787587221 | 33.33° C | 44% | 1000.1 hPa | 0 mm | - | - | - |
| 1787586471 | 33.33° C | 44% | 1000.1 hPa | 0 mm | - | - | - |
| 1787585721 | 33.33° C | 43% | 1000 hPa | 0 mm | - | - | - |
| 1787584971 | 34.44° C | 41% | 1000 hPa | 0 mm | - | - | - |
| 1787584221 | 34.44° C | 41% | 1000 hPa | 0 mm | - | - | - |
| 1787583470 | 32.22° C | 43% | 1000.2 hPa | 0 mm | - | - | - |
| 1787582721 | 31.67° C | 46% | 1000.4 hPa | 0 mm | - | - | - |
| 1787581970 | 30.56° C | 47% | 1000.6 hPa | 0 mm | - | - | - |
| 1787581220 | 31.67° C | 42% | 1000.8 hPa | 0 mm | - | - | - |
| 1787580470 | 37.78° C | 26% | 1000.7 hPa | 0 mm | - | - | - |
| 1787579720 | 37.22° C | 25% | 1000.8 hPa | 0 mm | - | - | - |
| 1787578970 | 37.78° C | 26% | 1001.1 hPa | 0 mm | - | - | - |
| 1787578220 | 35° C | 40% | 1001.4 hPa | 0 mm | - | - | - |
| 1787577470 | 33.89° C | 42% | 1001.7 hPa | 0 mm | - | - | - |
* Rain latest hour (hover to see other rain measurements)
** Current wind speed in m/s (hover to see current wind gust speed)